sensor_id;sensor_type;location;lat;lon;timestamp;pressure;altitude;pressure_sealevel;temperature;humidity
78719;BME280;68046;53.334;9.538;2024-03-07T00:00:08;102570.78;;;1.44;100.00
78719;BME280;68046;53.334;9.538;2024-03-07T00:02:37;102574.41;;;1.46;100.00
78719;BME280;68046;53.334;9.538;2024-03-07T00:05:03;102577.25;;;1.39;100.00
78719;BME280;68046;53.334;9.538;2024-03-07T00:07:30;102576.19;;;1.36;100.00
78719;BME280;68046;53.334;9.538;2024-03-07T00:09:55;102580.19;;;1.33;100.00
78719;BME280;68046;53.334;9.538;2024-03-07T00:12:21;102580.31;;;1.34;100.00
78719;BME280;68046;53.334;9.538;2024-03-07T00:14:46;102581.56;;;1.29;100.00
78719;BME280;68046;53.334;9.538;2024-03-07T00:17:12;102587.41;;;1.08;100.00
78719;BME280;68046;53.334;9.538;2024-03-07T00:19:37;102586.59;;;0.99;100.00
78719;BME280;68046;53.334;9.538;2024-03-07T00:22:03;102586.69;;;1.09;100.00
78719;BME280;68046;53.334;9.538;2024-03-07T00:24:30;102586.88;;;1.21;100.00
78719;BME280;68046;53.334;9.538;2024-03-07T00:26:55;102582.59;;;1.21;100.00
78719;BME280;68046;53.334;9.538;2024-03-07T00:29:21;102583.69;;;1.33;100.00
78719;BME280;68046;53.334;9.538;2024-03-07T00:31:46;102579.16;;;1.41;100.00
78719;BME280;68046;53.334;9.538;2024-03-07T00:34:12;102584.34;;;1.41;100.00
78719;BME280;68046;53.334;9.538;2024-03-07T00:36:38;102581.56;;;1.29;100.00
78719;BME280;68046;53.334;9.538;2024-03-07T00:39:03;102584.72;;;1.35;100.00
78719;BME280;68046;53.334;9.538;2024-03-07T00:41:30;102579.03;;;1.40;100.00
78719;BME280;68046;53.334;9.538;2024-03-07T00:43:56;102576.31;;;1.38;100.00
78719;BME280;68046;53.334;9.538;2024-03-07T00:46:21;102569.59;;;1.40;100.00
78719;BME280;68046;53.334;9.538;2024-03-07T00:48:47;102572.09;;;1.49;100.00
78719;BME280;68046;53.334;9.538;2024-03-07T00:51:12;102576.75;;;1.53;100.00
78719;BME280;68046;53.334;9.538;2024-03-07T00:53:37;102576.28;;;1.57;100.00
78719;BME280;68046;53.334;9.538;2024-03-07T00:56:03;102575.47;;;1.58;100.00
78719;BME280;68046;53.334;9.538;2024-03-07T00:58:30;102574.31;;;1.65;100.00
78719;BME280;68046;53.334;9.538;2024-03-07T01:00:56;102572.91;;;1.68;100.00
78719;BME280;68046;53.334;9.538;2024-03-07T01:03:21;102567.75;;;1.68;100.00
78719;BME280;68046;53.334;9.538;2024-03-07T01:05:47;102560.66;;;1.76;100.00
78719;BME280;68046;53.334;9.538;2024-03-07T01:08:12;102549.25;;;1.74;100.00
78719;BME280;68046;53.334;9.538;2024-03-07T01:10:38;102569.84;;;1.72;100.00
78719;BME280;68046;53.334;9.538;2024-03-07T01:13:03;102564.56;;;1.81;100.00
78719;BME280;68046;53.334;9.538;2024-03-07T01:15:31;102562.47;;;1.77;100.00
78719;BME280;68046;53.334;9.538;2024-03-07T01:17:56;102567.63;;;1.77;100.00
78719;BME280;68046;53.334;9.538;2024-03-07T01:20:22;102572.06;;;1.88;100.00
78719;BME280;68046;53.334;9.538;2024-03-07T01:22:47;102565.97;;;1.88;100.00
78719;BME280;68046;53.334;9.538;2024-03-07T01:25:13;102571.94;;;1.97;100.00
78719;BME280;68046;53.334;9.538;2024-03-07T01:27:38;102565.88;;;1.96;100.00
78719;BME280;68046;53.334;9.538;2024-03-07T01:30:05;102569.72;;;2.01;100.00
78719;BME280;68046;53.334;9.538;2024-03-07T01:32:32;102565.97;;;1.98;100.00
78719;BME280;68046;53.334;9.538;2024-03-07T01:34:57;102572.47;;;2.03;100.00
78719;BME280;68046;53.334;9.538;2024-03-07T01:37:23;102570.66;;;2.02;100.00
78719;BME280;68046;53.334;9.538;2024-03-07T01:39:48;102569.72;;;2.01;100.00
78719;BME280;68046;53.334;9.538;2024-03-07T01:42:14;102563.91;;;2.04;100.00
78719;BME280;68046;53.334;9.538;2024-03-07T01:44:39;102570.94;;;2.05;100.00
78719;BME280;68046;53.334;9.538;2024-03-07T01:47:05;102562.91;;;2.02;100.00
78719;BME280;68046;53.334;9.538;2024-03-07T01:49:32;102562.25;;;2.15;100.00
78719;BME280;68046;53.334;9.538;2024-03-07T01:51:58;102568.06;;;2.12;100.00
78719;BME280;68046;53.334;9.538;2024-03-07T01:54:25;102566.75;;;2.07;100.00
78719;BME280;68046;53.334;9.538;2024-03-07T01:56:51;102563.16;;;2.15;100.00
78719;BME280;68046;53.334;9.538;2024-03-07T01:59:17;102557.22;;;2.26;100.00
78719;BME280;68046;53.334;9.538;2024-03-07T02:01:43;102555.63;;;2.28;100.00
78719;BME280;68046;53.334;9.538;2024-03-07T02:04:09;102558.66;;;2.23;100.00
78719;BME280;68046;53.334;9.538;2024-03-07T02:06:36;102554.75;;;2.18;100.00
78719;BME280;68046;53.334;9.538;2024-03-07T02:09:01;102555.91;;;2.21;100.00
78719;BME280;68046;53.334;9.538;2024-03-07T02:11:27;102556.81;;;2.32;100.00
78719;BME280;68046;53.334;9.538;2024-03-07T02:13:52;102557.47;;;2.29;100.00
78719;BME280;68046;53.334;9.538;2024-03-07T02:16:18;102545.78;;;2.35;100.00
78719;BME280;68046;53.334;9.538;2024-03-07T02:18:44;102542.94;;;2.32;100.00
78719;BME280;68046;53.334;9.538;2024-03-07T02:21:11;102537.78;;;2.42;100.00
78719;BME280;68046;53.334;9.538;2024-03-07T02:23:36;102527.03;;;2.47;100.00
78719;BME280;68046;53.334;9.538;2024-03-07T02:26:03;102533.50;;;2.42;100.00
78719;BME280;68046;53.334;9.538;2024-03-07T02:28:28;102521.84;;;2.47;100.00
78719;BME280;68046;53.334;9.538;2024-03-07T02:30:53;102527.53;;;2.54;100.00
78719;BME280;68046;53.334;9.538;2024-03-07T02:33:19;102521.44;;;2.53;100.00
78719;BME280;68046;53.334;9.538;2024-03-07T02:35:44;102521.19;;;2.50;100.00
78719;BME280;68046;53.334;9.538;2024-03-07T02:38:11;102529.72;;;2.59;100.00
78719;BME280;68046;53.334;9.538;2024-03-07T02:40:37;102521.72;;;2.56;100.00
78719;BME280;68046;53.334;9.538;2024-03-07T02:43:03;102521.97;;;2.59;100.00
78719;BME280;68046;53.334;9.538;2024-03-07T02:45:28;102514.19;;;2.59;100.00
78719;BME280;68046;53.334;9.538;2024-03-07T02:47:54;102520.50;;;2.63;100.00
78719;BME280;68046;53.334;9.538;2024-03-07T02:50:19;102520.38;;;2.61;100.00
78719;BME280;68046;53.334;9.538;2024-03-07T02:52:45;102515.44;;;2.64;100.00
78719;BME280;68046;53.334;9.538;2024-03-07T02:55:11;102504.19;;;2.64;100.00
78719;BME280;68046;53.334;9.538;2024-03-07T02:57:37;102514.78;;;2.67;100.00
78719;BME280;68046;53.334;9.538;2024-03-07T03:00:03;102507.16;;;2.68;100.00
78719;BME280;68046;53.334;9.538;2024-03-07T03:02:29;102506.75;;;2.74;100.00
78719;BME280;68046;53.334;9.538;2024-03-07T03:04:54;102514.09;;;2.80;100.00
78719;BME280;68046;53.334;9.538;2024-03-07T03:07:20;102515.94;;;2.81;100.00
78719;BME280;68046;53.334;9.538;2024-03-07T03:09:45;102508.56;;;2.75;100.00
78719;BME280;68046;53.334;9.538;2024-03-07T03:12:12;102511.00;;;2.73;100.00
78719;BME280;68046;53.334;9.538;2024-03-07T03:14:38;102509.22;;;2.72;100.00
78719;BME280;68046;53.334;9.538;2024-03-07T03:17:03;102508.81;;;2.78;100.00
78719;BME280;68046;53.334;9.538;2024-03-07T03:19:29;102506.09;;;2.77;100.00
78719;BME280;68046;53.334;9.538;2024-03-07T03:21:54;102507.00;;;2.77;100.00
78719;BME280;68046;53.334;9.538;2024-03-07T03:24:20;102502.97;;;2.81;100.00
78719;BME280;68046;53.334;9.538;2024-03-07T03:26:45;102500.50;;;2.82;100.00
78719;BME280;68046;53.334;9.538;2024-03-07T03:29:12;102490.38;;;2.85;100.00
78719;BME280;68046;53.334;9.538;2024-03-07T03:31:38;102494.00;;;2.87;100.00
78719;BME280;68046;53.334;9.538;2024-03-07T03:34:03;102487.78;;;2.85;100.00
78719;BME280;68046;53.334;9.538;2024-03-07T03:36:29;102487.03;;;2.86;100.00
78719;BME280;68046;53.334;9.538;2024-03-07T03:38:54;102493.88;;;2.86;100.00
78719;BME280;68046;53.334;9.538;2024-03-07T03:41:20;102484.78;;;2.91;100.00
78719;BME280;68046;53.334;9.538;2024-03-07T03:43:45;102486.63;;;2.92;100.00
78719;BME280;68046;53.334;9.538;2024-03-07T03:46:12;102488.66;;;2.96;100.00
78719;BME280;68046;53.334;9.538;2024-03-07T03:48:38;102481.78;;;2.96;100.00
78719;BME280;68046;53.334;9.538;2024-03-07T03:51:04;102488.13;;;3.00;100.00
78719;BME280;68046;53.334;9.538;2024-03-07T03:53:29;102491.19;;;3.06;100.00
78719;BME280;68046;53.334;9.538;2024-03-07T03:55:55;102481.47;;;3.04;100.00
78719;BME280;68046;53.334;9.538;2024-03-07T03:58:20;102475.88;;;3.09;100.00
78719;BME280;68046;53.334;9.538;2024-03-07T04:00:46;102476.53;;;3.07;100.00
78719;BME280;68046;53.334;9.538;2024-03-07T04:03:12;102484.06;;;3.04;100.00
78719;BME280;68046;53.334;9.538;2024-03-07T04:05:38;102482.28;;;3.25;100.00
78719;BME280;68046;53.334;9.538;2024-03-07T04:08:04;102477.41;;;3.17;100.00
78719;BME280;68046;53.334;9.538;2024-03-07T04:10:29;102478.22;;;3.16;100.00
78719;BME280;68046;53.334;9.538;2024-03-07T04:12:55;102480.91;;;3.18;100.00
78719;BME280;68046;53.334;9.538;2024-03-07T04:15:20;102480.38;;;3.22;100.00
78719;BME280;68046;53.334;9.538;2024-03-07T04:17:46;102482.44;;;3.26;100.00
78719;BME280;68046;53.334;9.538;2024-03-07T04:20:13;102476.84;;;3.21;100.00
78719;BME280;68046;53.334;9.538;2024-03-07T04:22:38;102473.91;;;3.17;100.00
78719;BME280;68046;53.334;9.538;2024-03-07T04:25:05;102476.50;;;3.17;100.00
78719;BME280;68046;53.334;9.538;2024-03-07T04:27:31;102476.63;;;3.18;100.00
78719;BME280;68046;53.334;9.538;2024-03-07T04:29:56;102472.41;;;3.31;100.00
78719;BME280;68046;53.334;9.538;2024-03-07T04:32:22;102467.09;;;3.29;100.00
78719;BME280;68046;53.334;9.538;2024-03-07T04:34:47;102464.38;;;3.28;100.00
78719;BME280;68046;53.334;9.538;2024-03-07T04:37:14;102459.75;;;3.24;100.00
78719;BME280;68046;53.334;9.538;2024-03-07T04:39:40;102464.13;;;3.25;100.00
78719;BME280;68046;53.334;9.538;2024-03-07T04:42:06;102474.41;;;3.23;100.00
78719;BME280;68046;53.334;9.538;2024-03-07T04:44:33;102469.88;;;3.20;100.00
78719;BME280;68046;53.334;9.538;2024-03-07T04:46:59;102469.22;;;3.23;100.00
78719;BME280;68046;53.334;9.538;2024-03-07T04:49:26;102470.34;;;3.27;100.00
78719;BME280;68046;53.334;9.538;2024-03-07T04:51:52;102460.66;;;3.24;100.00
78719;BME280;68046;53.334;9.538;2024-03-07T04:54:21;102466.97;;;3.28;100.00
78719;BME280;68046;53.334;9.538;2024-03-07T04:56:48;102470.34;;;3.27;100.00
78719;BME280;68046;53.334;9.538;2024-03-07T04:59:15;102470.84;;;3.33;100.00
78719;BME280;68046;53.334;9.538;2024-03-07T05:01:40;102467.91;;;3.28;100.00
78719;BME280;68046;53.334;9.538;2024-03-07T05:04:06;102475.78;;;3.30;100.00
78719;BME280;68046;53.334;9.538;2024-03-07T05:06:32;102472.94;;;3.27;100.00
78719;BME280;68046;53.334;9.538;2024-03-07T05:08:57;102472.34;;;3.41;100.00
78719;BME280;68046;53.334;9.538;2024-03-07T05:11:24;102471.63;;;3.32;100.00
78719;BME280;68046;53.334;9.538;2024-03-07T05:13:50;102473.91;;;3.39;100.00
78719;BME280;68046;53.334;9.538;2024-03-07T05:16:15;102471.06;;;3.36;100.00
78719;BME280;68046;53.334;9.538;2024-03-07T05:18:40;102476.50;;;3.39;100.00
78719;BME280;68046;53.334;9.538;2024-03-07T05:21:06;102479.34;;;3.42;100.00
78719;BME280;68046;53.334;9.538;2024-03-07T05:23:31;102476.22;;;3.46;100.00
78719;BME280;68046;53.334;9.538;2024-03-07T05:25:57;102474.16;;;3.42;100.00
78719;BME280;68046;53.334;9.538;2024-03-07T05:28:24;102475.66;;;3.50;100.00
78719;BME280;68046;53.334;9.538;2024-03-07T05:30:49;102479.00;;;3.37;100.00
78719;BME280;68046;53.334;9.538;2024-03-07T05:33:15;102480.66;;;3.37;100.00
78719;BME280;68046;53.334;9.538;2024-03-07T05:35:40;102484.59;;;3.32;100.00
78719;BME280;68046;53.334;9.538;2024-03-07T05:38:06;102486.28;;;3.31;100.00
78719;BME280;68046;53.334;9.538;2024-03-07T05:40:31;102492.44;;;3.43;100.00
78719;BME280;68046;53.334;9.538;2024-03-07T05:42:57;102491.00;;;3.47;100.00
78719;BME280;68046;53.334;9.538;2024-03-07T05:45:23;102492.72;;;3.36;100.00
78719;BME280;68046;53.334;9.538;2024-03-07T05:47:49;102496.13;;;3.35;100.00
78719;BME280;68046;53.334;9.538;2024-03-07T05:50:14;102502.50;;;3.29;100.00
78719;BME280;68046;53.334;9.538;2024-03-07T05:52:40;102500.19;;;3.21;100.00
78719;BME280;68046;53.334;9.538;2024-03-07T05:55:06;102505.28;;;3.20;100.00
78719;BME280;68046;53.334;9.538;2024-03-07T05:57:32;102502.88;;;3.33;100.00
78719;BME280;68046;53.334;9.538;2024-03-07T05:59:57;102500.25;;;3.33;100.00
78719;BME280;68046;53.334;9.538;2024-03-07T06:02:24;102507.97;;;3.21;100.00
78719;BME280;68046;53.334;9.538;2024-03-07T06:04:49;102506.19;;;3.20;100.00
78719;BME280;68046;53.334;9.538;2024-03-07T06:07:15;102506.19;;;3.20;100.00
78719;BME280;68046;53.334;9.538;2024-03-07T06:09:40;102509.06;;;3.13;100.00
78719;BME280;68046;53.334;9.538;2024-03-07T06:12:06;102512.16;;;3.19;100.00
78719;BME280;68046;53.334;9.538;2024-03-07T06:14:32;102512.66;;;3.15;100.00
78719;BME280;68046;53.334;9.538;2024-03-07T06:16:57;102511.28;;;3.09;100.00
78719;BME280;68046;53.334;9.538;2024-03-07T06:19:24;102518.41;;;3.11;100.00
78719;BME280;68046;53.334;9.538;2024-03-07T06:21:50;102523.59;;;3.11;100.00
78719;BME280;68046;53.334;9.538;2024-03-07T06:24:15;102533.38;;;3.26;100.00
78719;BME280;68046;53.334;9.538;2024-03-07T06:26:41;102523.44;;;3.20;100.00
78719;BME280;68046;53.334;9.538;2024-03-07T06:29:06;102532.03;;;3.09;100.00
78719;BME280;68046;53.334;9.538;2024-03-07T06:31:32;102535.91;;;3.14;100.00
78719;BME280;68046;53.334;9.538;2024-03-07T06:33:58;102541.75;;;3.11;100.00
78719;BME280;68046;53.334;9.538;2024-03-07T06:36:25;102537.34;;;3.10;100.00
78719;BME280;68046;53.334;9.538;2024-03-07T06:38:50;102536.56;;;3.11;100.00
78719;BME280;68046;53.334;9.538;2024-03-07T06:41:16;102528.63;;;3.10;100.00
78719;BME280;68046;53.334;9.538;2024-03-07T06:43:42;102535.00;;;3.13;100.00
78719;BME280;68046;53.334;9.538;2024-03-07T06:46:08;102524.13;;;3.07;100.00
78719;BME280;68046;53.334;9.538;2024-03-07T06:48:33;102528.63;;;3.10;100.00
78719;BME280;68046;53.334;9.538;2024-03-07T06:50:59;102540.69;;;3.19;100.00
78719;BME280;68046;53.334;9.538;2024-03-07T06:53:26;102536.25;;;3.18;100.00
78719;BME280;68046;53.334;9.538;2024-03-07T06:55:51;102536.31;;;3.08;100.00
78719;BME280;68046;53.334;9.538;2024-03-07T06:58:17;102535.41;;;3.08;100.00
78719;BME280;68046;53.334;9.538;2024-03-07T07:00:42;102533.72;;;3.08;100.00
78719;BME280;68046;53.334;9.538;2024-03-07T07:03:08;102529.97;;;3.05;100.00
78719;BME280;68046;53.334;9.538;2024-03-07T07:05:33;102534.06;;;3.13;100.00
78719;BME280;68046;53.334;9.538;2024-03-07T07:07:59;102534.06;;;3.13;100.00
78719;BME280;68046;53.334;9.538;2024-03-07T07:10:25;102533.41;;;3.15;100.00
78719;BME280;68046;53.334;9.538;2024-03-07T07:12:51;102534.34;;;3.16;100.00
78719;BME280;68046;53.334;9.538;2024-03-07T07:15:18;102535.50;;;3.19;100.00
78719;BME280;68046;53.334;9.538;2024-03-07T07:17:44;102532.66;;;3.16;100.00
78719;BME280;68046;53.334;9.538;2024-03-07T07:20:11;102531.47;;;3.13;100.00
78719;BME280;68046;53.334;9.538;2024-03-07T07:22:36;102538.34;;;3.12;100.00
78719;BME280;68046;53.334;9.538;2024-03-07T07:25:02;102539.00;;;3.10;100.00
78719;BME280;68046;53.334;9.538;2024-03-07T07:27:29;102537.06;;;3.17;100.00
78719;BME280;68046;53.334;9.538;2024-03-07T07:29:55;102542.38;;;3.19;100.00
78719;BME280;68046;53.334;9.538;2024-03-07T07:32:20;102546.38;;;3.15;100.00
78719;BME280;68046;53.334;9.538;2024-03-07T07:34:48;102542.19;;;3.28;100.00
78719;BME280;68046;53.334;9.538;2024-03-07T07:37:13;102544.81;;;3.17;100.00
78719;BME280;68046;53.334;9.538;2024-03-07T07:39:39;102539.53;;;3.16;100.00
78719;BME280;68046;53.334;9.538;2024-03-07T07:42:04;102545.47;;;3.15;100.00
78719;BME280;68046;53.334;9.538;2024-03-07T07:44:31;102546.69;;;3.08;100.00
78719;BME280;68046;53.334;9.538;2024-03-07T07:46:57;102546.19;;;3.02;100.00
78719;BME280;68046;53.334;9.538;2024-03-07T07:49:22;102539.19;;;3.01;100.00
78719;BME280;68046;53.334;9.538;2024-03-07T07:51:48;102538.34;;;3.23;100.00
78719;BME280;68046;53.334;9.538;2024-03-07T07:54:14;102542.56;;;3.00;100.00
78719;BME280;68046;53.334;9.538;2024-03-07T07:56:39;102532.94;;;3.09;100.00
78719;BME280;68046;53.334;9.538;2024-03-07T07:59:05;102539.94;;;3.10;100.00
78719;BME280;68046;53.334;9.538;2024-03-07T08:01:32;102536.84;;;3.04;100.00
78719;BME280;68046;53.334;9.538;2024-03-07T08:03:58;102539.97;;;3.00;100.00
78719;BME280;68046;53.334;9.538;2024-03-07T08:06:23;102538.91;;;3.08;100.00
78719;BME280;68046;53.334;9.538;2024-03-07T08:08:49;102534.59;;;3.19;100.00
78719;BME280;68046;53.334;9.538;2024-03-07T08:11:14;102537.84;;;3.16;100.00
78719;BME280;68046;53.334;9.538;2024-03-07T08:13:40;102543.03;;;3.16;100.00
78719;BME280;68046;53.334;9.538;2024-03-07T08:16:05;102538.59;;;3.15;100.00
78719;BME280;68046;53.334;9.538;2024-03-07T08:18:32;102538.75;;;3.07;100.00
78719;BME280;68046;53.334;9.538;2024-03-07T08:20:58;102542.00;;;3.14;100.00
78719;BME280;68046;53.334;9.538;2024-03-07T08:23:23;102543.28;;;3.09;100.00
78719;BME280;68046;53.334;9.538;2024-03-07T08:25:49;102546.94;;;3.11;100.00
78719;BME280;68046;53.334;9.538;2024-03-07T08:28:14;102543.63;;;2.92;100.00
78719;BME280;68046;53.334;9.538;2024-03-07T08:30:40;102544.25;;;3.00;100.00
78719;BME280;68046;53.334;9.538;2024-03-07T08:33:06;102550.41;;;3.22;100.00
78719;BME280;68046;53.334;9.538;2024-03-07T08:35:33;102545.88;;;3.19;100.00
78719;BME280;68046;53.334;9.538;2024-03-07T08:37:58;102553.00;;;3.12;100.00
78719;BME280;68046;53.334;9.538;2024-03-07T08:40:25;102549.38;;;3.10;100.00
78719;BME280;68046;53.334;9.538;2024-03-07T08:42:52;102554.56;;;3.10;100.00
78719;BME280;68046;53.334;9.538;2024-03-07T08:45:18;102556.47;;;3.23;100.00
78719;BME280;68046;53.334;9.538;2024-03-07T08:47:44;102553.91;;;3.12;100.00
78719;BME280;68046;53.334;9.538;2024-03-07T08:50:11;102557.53;;;3.14;100.00
78719;BME280;68046;53.334;9.538;2024-03-07T08:52:38;102559.88;;;3.11;100.00
78719;BME280;68046;53.334;9.538;2024-03-07T08:55:05;102549.38;;;3.10;100.00
78719;BME280;68046;53.334;9.538;2024-03-07T08:57:30;102550.72;;;3.05;100.00
78719;BME280;68046;53.334;9.538;2024-03-07T08:59:56;102543.94;;;3.07;100.00
78719;BME280;68046;53.334;9.538;2024-03-07T09:02:22;102549.75;;;3.14;100.00
78719;BME280;68046;53.334;9.538;2024-03-07T09:04:47;102546.78;;;3.10;100.00
78719;BME280;68046;53.334;9.538;2024-03-07T09:07:13;102542.78;;;3.13;100.00
78719;BME280;68046;53.334;9.538;2024-03-07T09:09:40;102539.25;;;3.13;100.00
78719;BME280;68046;53.334;9.538;2024-03-07T09:12:06;102547.34;;;3.06;100.00
78719;BME280;68046;53.334;9.538;2024-03-07T09:14:32;102540.34;;;3.05;100.00
78719;BME280;68046;53.334;9.538;2024-03-07T09:16:57;102544.88;;;3.07;100.00
78719;BME280;68046;53.334;9.538;2024-03-07T09:19:23;102541.41;;;2.96;100.00
78719;BME280;68046;53.334;9.538;2024-03-07T09:21:50;102545.03;;;2.98;100.00
78719;BME280;68046;53.334;9.538;2024-03-07T09:24:16;102546.28;;;3.14;100.00
78719;BME280;68046;53.334;9.538;2024-03-07T09:26:42;102545.88;;;3.19;100.00
78719;BME280;68046;53.334;9.538;2024-03-07T09:29:08;102551.88;;;3.08;100.00
78719;BME280;68046;53.334;9.538;2024-03-07T09:31:33;102545.63;;;3.16;100.00
78719;BME280;68046;53.334;9.538;2024-03-07T09:33:59;102542.56;;;3.00;100.00
78719;BME280;68046;53.334;9.538;2024-03-07T09:36:25;102540.94;;;3.12;100.00
78719;BME280;68046;53.334;9.538;2024-03-07T09:38:51;102537.91;;;2.96;100.00
78719;BME280;68046;53.334;9.538;2024-03-07T09:41:16;102541.66;;;3.00;100.00
78719;BME280;68046;53.334;9.538;2024-03-07T09:43:43;102533.88;;;3.00;100.00
78719;BME280;68046;53.334;9.538;2024-03-07T09:46:10;102539.09;;;3.21;100.00
78719;BME280;68046;53.334;9.538;2024-03-07T09:48:35;102541.50;;;3.08;100.00
78719;BME280;68046;53.334;9.538;2024-03-07T09:51:02;102539.41;;;3.36;100.00
78719;BME280;68046;53.334;9.538;2024-03-07T09:53:30;102531.53;;;3.35;100.00
78719;BME280;68046;53.334;9.538;2024-03-07T09:55:56;102535.91;;;3.36;100.00
78719;BME280;68046;53.334;9.538;2024-03-07T09:58:21;102538.50;;;3.36;100.00
78719;BME280;68046;53.334;9.538;2024-03-07T10:00:49;102534.84;;;3.44;100.00
78719;BME280;68046;53.334;9.538;2024-03-07T10:03:17;102532.91;;;3.41;100.00
78719;BME280;68046;53.334;9.538;2024-03-07T10:05:46;102541.31;;;3.49;100.00
78719;BME280;68046;53.334;9.538;2024-03-07T10:08:11;102534.19;;;3.47;100.00
78719;BME280;68046;53.334;9.538;2024-03-07T10:10:37;102545.09;;;3.42;100.00
78719;BME280;68046;53.334;9.538;2024-03-07T10:13:03;102537.63;;;3.35;100.00
78719;BME280;68046;53.334;9.538;2024-03-07T10:15:29;102541.91;;;3.35;100.00
78719;BME280;68046;53.334;9.538;2024-03-07T10:17:56;102547.50;;;3.51;100.00
78719;BME280;68046;53.334;9.538;2024-03-07T10:20:22;102533.53;;;3.71;100.00
78719;BME280;68046;53.334;9.538;2024-03-07T10:22:47;102538.78;;;3.83;100.00
78719;BME280;68046;53.334;9.538;2024-03-07T10:25:13;102538.34;;;3.88;100.00
78719;BME280;68046;53.334;9.538;2024-03-07T10:27:38;102537.66;;;3.91;100.00
78719;BME280;68046;53.334;9.538;2024-03-07T10:30:05;102540.25;;;3.91;100.00
78719;BME280;68046;53.334;9.538;2024-03-07T10:32:30;102537.63;;;3.79;100.00
78719;BME280;68046;53.334;9.538;2024-03-07T10:34:57;102535.75;;;3.66;100.00
78719;BME280;68046;53.334;9.538;2024-03-07T10:37:23;102523.63;;;3.77;100.00
78719;BME280;68046;53.334;9.538;2024-03-07T10:39:49;102524.03;;;3.72;100.00
78719;BME280;68046;53.334;9.538;2024-03-07T10:42:16;102532.19;;;3.76;100.00
78719;BME280;68046;53.334;9.538;2024-03-07T10:44:43;102517.53;;;3.77;100.00
78719;BME280;68046;53.334;9.538;2024-03-07T10:47:11;102513.00;;;4.08;100.00
78719;BME280;68046;53.334;9.538;2024-03-07T10:49:48;102509.41;;;4.29;100.00
78719;BME280;68046;53.334;9.538;2024-03-07T10:52:28;102511.91;;;4.28;100.00
78719;BME280;68046;53.334;9.538;2024-03-07T10:55:03;102510.44;;;4.20;100.00
78719;BME280;68046;53.334;9.538;2024-03-07T10:57:41;102515.94;;;4.12;100.00
78719;BME280;68046;53.334;9.538;2024-03-07T11:00:11;102517.97;;;4.17;100.00
78719;BME280;68046;53.334;9.538;2024-03-07T11:02:43;102515.41;;;4.28;100.00
78719;BME280;68046;53.334;9.538;2024-03-07T11:05:13;102520.81;;;4.20;100.00
78719;BME280;68046;53.334;9.538;2024-03-07T11:07:41;102525.44;;;4.24;100.00
78719;BME280;68046;53.334;9.538;2024-03-07T11:10:08;102511.81;;;4.38;100.00
78719;BME280;68046;53.334;9.538;2024-03-07T11:12:35;102502.00;;;4.57;100.00
78719;BME280;68046;53.334;9.538;2024-03-07T11:15:02;102490.38;;;4.64;100.00
78719;BME280;68046;53.334;9.538;2024-03-07T11:17:28;102501.88;;;4.68;100.00
78719;BME280;68046;53.334;9.538;2024-03-07T11:19:53;102499.75;;;4.74;100.00
78719;BME280;68046;53.334;9.538;2024-03-07T11:22:29;102493.41;;;4.70;100.00
78719;BME280;68046;53.334;9.538;2024-03-07T11:25:01;102489.88;;;4.93;100.00
78719;BME280;68046;53.334;9.538;2024-03-07T11:27:27;102493.28;;;4.92;100.00
78719;BME280;68046;53.334;9.538;2024-03-07T11:29:52;102492.16;;;5.00;98.84
78719;BME280;68046;53.334;9.538;2024-03-07T11:32:19;102489.56;;;5.00;99.97
78719;BME280;68046;53.334;9.538;2024-03-07T11:34:45;102483.78;;;4.93;99.77
78719;BME280;68046;53.334;9.538;2024-03-07T11:37:11;102491.34;;;5.01;100.00
78719;BME280;68046;53.334;9.538;2024-03-07T11:39:41;102482.44;;;4.98;99.75
78719;BME280;68046;53.334;9.538;2024-03-07T11:42:08;102479.47;;;4.93;100.00
78719;BME280;68046;53.334;9.538;2024-03-07T11:44:34;102483.56;;;4.90;100.00
78719;BME280;68046;53.334;9.538;2024-03-07T11:47:00;102475.97;;;4.93;100.00
78719;BME280;68046;53.334;9.538;2024-03-07T11:49:25;102478.81;;;4.84;100.00
78719;BME280;68046;53.334;9.538;2024-03-07T11:51:51;102474.75;;;4.88;100.00
78719;BME280;68046;53.334;9.538;2024-03-07T11:54:16;102471.31;;;5.12;100.00
78719;BME280;68046;53.334;9.538;2024-03-07T11:56:43;102463.31;;;4.97;100.00
78719;BME280;68046;53.334;9.538;2024-03-07T11:59:10;102462.75;;;5.01;100.00
78719;BME280;68046;53.334;9.538;2024-03-07T12:01:35;102461.81;;;5.13;100.00
78719;BME280;68046;53.334;9.538;2024-03-07T12:04:01;102463.84;;;5.17;100.00
78719;BME280;68046;53.334;9.538;2024-03-07T12:06:26;102461.00;;;5.14;100.00
78719;BME280;68046;53.334;9.538;2024-03-07T12:08:52;102455.81;;;5.14;100.00
78719;BME280;68046;53.334;9.538;2024-03-07T12:11:17;102452.28;;;5.25;100.00
78719;BME280;68046;53.334;9.538;2024-03-07T12:13:43;102450.56;;;5.25;100.00
78719;BME280;68046;53.334;9.538;2024-03-07T12:16:10;102455.31;;;5.31;100.00
78719;BME280;68046;53.334;9.538;2024-03-07T12:18:36;102452.25;;;5.37;100.00
78719;BME280;68046;53.334;9.538;2024-03-07T12:21:02;102449.50;;;5.35;100.00
78719;BME280;68046;53.334;9.538;2024-03-07T12:23:27;102448.19;;;5.28;100.00
78719;BME280;68046;53.334;9.538;2024-03-07T12:26:00;102447.91;;;5.12;100.00
78719;BME280;68046;53.334;9.538;2024-03-07T12:28:25;102447.13;;;5.01;100.00
78719;BME280;68046;53.334;9.538;2024-03-07T12:30:53;102444.25;;;4.85;100.00
78719;BME280;68046;53.334;9.538;2024-03-07T12:33:21;102447.63;;;4.84;100.00
78719;BME280;68046;53.334;9.538;2024-03-07T12:35:47;102440.63;;;4.83;100.00
78719;BME280;68046;53.334;9.538;2024-03-07T12:38:13;102446.63;;;4.70;100.00
78719;BME280;68046;53.334;9.538;2024-03-07T12:40:39;102440.41;;;4.68;100.00
78719;BME280;68046;53.334;9.538;2024-03-07T12:43:12;102440.84;;;4.86;100.00